Nearby METAR Reports

 

EGXV - Leconfield (aut), United Kingdom
Distance from station: NW 6mi, 9km
Updated: Sun, 25-Jun-2017 5:50am BST
Mostly cloudy
Mostly cloudy
 Wind from W
Wind: W 10 mph , 17 km/h
Temperature: 13°C
Dew Point: 9°C
Humidity: 77%
Barometer: 1008 hPa
Clouds: Mostly cloudy
Visibility: 6 miles , 10 km
Cloud details: Mostly cloudy 1250 m
Mostly cloudy 2743 m
2017/06/25 04:50 EGXV 250450Z AUTO 26009KT 9999 BKN041/// BKN090/// 13/09 Q1008
EGNJ - Humberside, United Kingdom
Distance from station: S 16mi, 26km
Updated: Sun, 25-Jun-2017 5:50am BST
Overcast
Overcast
 Wind from WSW
Wind: WSW 3 mph , 6 km/h
Temperature: 15°C
Dew Point: 10°C
Humidity: 72%
Barometer: 1009 hPa
Clouds: Overcast
Visibility: 6 miles , 10 km
Cloud details: Mostly cloudy 671 m
Overcast 914 m
2017/06/25 04:50 EGNJ 250450Z AUTO 24003KT 9999 BKN022/// OVC030/// 15/10 Q1009
EGXS - Donna Nook Raf, United Kingdom
Distance from station: SE 30mi, 49km
Updated: Sun, 25-Jun-2017 5:50am BST
Mostly cloudy
Mostly cloudy
 Wind from WSW
Wind: WSW 5 mph , 7 km/h
Temperature: 14°C
Dew Point: 11°C
Humidity: 82%
Barometer: 1008 hPa
Clouds: Mostly cloudy
Visibility: 6 miles , 10 km
Cloud details: Mostly cloudy 1158 m
Mostly cloudy 1341 m
2017/06/25 04:50 EGXS 250450Z AUTO 25004KT 9999 // BKN038/// BKN044/// 14/11 Q1008
 
EGCN - Doncaster Sheffi, United Kingdom
Distance from station: SW 35mi, 56km
Updated: Sun, 25-Jun-2017 5:50am BST
Mostly cloudy
Mostly cloudy
 Wind from WSW
Wind: WSW 12 mph , 19 km/h
Temperature: 15°C
Dew Point: 11°C
Humidity: 77%
Barometer: 1010 hPa
Clouds: Mostly cloudy
Visibility: 6 miles , 10 km
Cloud details: Few Clouds 762 m
Partly cloudy 1067 m
Mostly cloudy 1311 m
2017/06/25 04:50 EGCN 250450Z 25010KT 9999 FEW025 SCT035 BKN043 15/11 Q1010
EGXP - Scampton Raf, United Kingdom
Distance from station: SSW 36mi, 58km
Updated: Sun, 25-Jun-2017 5:50am BST
Overcast
Overcast
 Wind from W
Wind: W 14 mph , 22 km/h
Temperature: 14°C
Dew Point: 10°C
Humidity: 77%
Barometer: 1009 hPa
Clouds: Overcast
Visibility: 6 miles , 10 km
Cloud details: Few Clouds 732 m
Overcast 853 m
2017/06/25 04:50 EGXP 250450Z AUTO 27012KT 9999 // FEW024/// OVC028/// 14/10 Q1009
EGXU - Linton-On-Ouse R, United Kingdom
Distance from station: WNW 40mi, 65km
Updated: Sun, 25-Jun-2017 5:50am BST
Mostly cloudy
Mostly cloudy
 Wind from WSW
Wind: WSW 12 mph , 19 km/h
Temperature: 13°C
Dew Point: 10°C
Humidity: 82%
Barometer: 1008 hPa
Clouds: Mostly cloudy
Visibility: 6 miles , 10 km
Cloud details: Mostly cloudy 1524 m
Mostly cloudy 2438 m
2017/06/25 04:50 EGXU 250450Z AUTO 25010KT 9999 // BKN050/// BKN080/// 13/10 Q1008
 
EGXW - Waddington Raf, United Kingdom
Distance from station: S 43mi, 70km
Updated: Sun, 25-Jun-2017 5:50am BST
Mostly cloudy
Mostly cloudy
 Wind from WSW
Wind: WSW 8 mph , 13 km/h
Temperature: 14°C
Dew Point: 10°C
Humidity: 77%
Barometer: 1009 hPa
Clouds: Mostly cloudy
Visibility: 6 miles , 10 km
Cloud details: Few Clouds 671 m
Mostly cloudy 792 m
2017/06/25 04:50 EGXW 250450Z 25007KT 9999 FEW022 BKN026 14/10 Q1009 BLU
EGXC - Coningsby Raf, United Kingdom
Distance from station: S 49mi, 79km
Updated: Sun, 25-Jun-2017 5:50am BST
Mostly cloudy
Mostly cloudy
 Wind from WSW
Wind: WSW 6 mph , 9 km/h
Temperature: 15°C
Dew Point: 12°C
Humidity: 82%
Barometer: 1009 hPa
Clouds: Mostly cloudy
Visibility: 6 miles , 10 km
Cloud details: Few Clouds 610 m
Mostly cloudy 1189 m
2017/06/25 04:50 EGXC 250450Z 24005KT 9999 FEW020 BKN039 15/12 Q1009 BLU
EGXD - Dishforth Raf, United Kingdom
Distance from station: WNW 49mi, 79km
Updated: Mon, 06-Jun-2016 10:50am BST
NOT Current
Clear
Clear
 Wind from SSE
Wind: SSE 5 mph , 7 km/h
Temperature: 18°C
Dew Point: 11°C
Humidity: 64%
Barometer: 1023 hPa
Clouds: Clear
Visibility: 6 miles , 10 km
2016/06/06 09:50 EGXD 060950Z AUTO 16004KT 9999 // NCD 18/11 Q1023
 
EGXZ - Topcliffe Raf, United Kingdom
Distance from station: WNW 50mi, 81km
Updated: Sun, 25-Jun-2017 5:50am BST
Mostly cloudy
Mostly cloudy
 Wind from SW
Wind: SW 9 mph , 15 km/h
Temperature: 12°C
Dew Point: 9°C
Humidity: 82%
Barometer: 1008 hPa
Clouds: Mostly cloudy
Visibility: 6 miles , 10 km
Cloud details: Mostly cloudy 1341 m
2017/06/25 04:50 EGXZ 250450Z AUTO 23008KT 9999 BKN044/// 12/09 Q1008